sensor_id;sensor_type;location;lat;lon;timestamp;pressure;altitude;pressure_sealevel;temperature;humidity
13800;BME280;6971;50.028;9.258;2024-02-26T00:04:57;97642.25;;;4.95;100.00
13800;BME280;6971;50.028;9.258;2024-02-26T00:09:57;97634.34;;;4.97;100.00
13800;BME280;6971;50.028;9.258;2024-02-26T00:14:58;97637.94;;;4.94;100.00
13800;BME280;6971;50.028;9.258;2024-02-26T00:19:58;97639.09;;;4.90;100.00
13800;BME280;6971;50.028;9.258;2024-02-26T00:24:59;97626.84;;;4.91;100.00
13800;BME280;6971;50.028;9.258;2024-02-26T00:29:59;97627.03;;;4.88;100.00
13800;BME280;6971;50.028;9.258;2024-02-26T00:34:59;97624.78;;;4.81;100.00
13800;BME280;6971;50.028;9.258;2024-02-26T00:40:00;97631.28;;;4.74;100.00
13800;BME280;6971;50.028;9.258;2024-02-26T00:45:00;97630.94;;;4.66;100.00
13800;BME280;6971;50.028;9.258;2024-02-26T00:50:00;97634.94;;;4.72;100.00
13800;BME280;6971;50.028;9.258;2024-02-26T00:55:02;97636.34;;;4.77;100.00
13800;BME280;6971;50.028;9.258;2024-02-26T01:00:03;97641.47;;;4.79;100.00
13800;BME280;6971;50.028;9.258;2024-02-26T01:05:04;97638.94;;;4.77;100.00
13800;BME280;6971;50.028;9.258;2024-02-26T01:10:06;97637.44;;;4.73;100.00
13800;BME280;6971;50.028;9.258;2024-02-26T01:15:07;97628.88;;;4.71;100.00
13800;BME280;6971;50.028;9.258;2024-02-26T01:20:08;97639.31;;;4.71;100.00
13800;BME280;6971;50.028;9.258;2024-02-26T01:25:09;97626.28;;;4.71;100.00
13800;BME280;6971;50.028;9.258;2024-02-26T01:30:10;97633.09;;;4.74;100.00
13800;BME280;6971;50.028;9.258;2024-02-26T01:35:11;97610.16;;;4.79;100.00
13800;BME280;6971;50.028;9.258;2024-02-26T01:40:12;97603.19;;;4.79;100.00
13800;BME280;6971;50.028;9.258;2024-02-26T01:45:16;97609.88;;;4.83;100.00
13800;BME280;6971;50.028;9.258;2024-02-26T01:50:22;97615.84;;;4.86;100.00
13800;BME280;6971;50.028;9.258;2024-02-26T01:55:23;97602.03;;;4.69;100.00
13800;BME280;6971;50.028;9.258;2024-02-26T02:00:24;97592.16;;;4.74;100.00
13800;BME280;6971;50.028;9.258;2024-02-26T02:05:25;97594.13;;;4.85;100.00
13800;BME280;6971;50.028;9.258;2024-02-26T02:10:26;97587.22;;;4.69;100.00
13800;BME280;6971;50.028;9.258;2024-02-26T02:15:27;97636.94;;;4.97;100.00
13800;BME280;6971;50.028;9.258;2024-02-26T02:20:34;97618.63;;;4.82;100.00
13800;BME280;6971;50.028;9.258;2024-02-26T02:25:34;97600.44;;;4.81;100.00
13800;BME280;6971;50.028;9.258;2024-02-26T02:30:34;97584.97;;;4.63;100.00
13800;BME280;6971;50.028;9.258;2024-02-26T02:35:36;97591.50;;;4.85;100.00
13800;BME280;6971;50.028;9.258;2024-02-26T02:40:36;97602.53;;;4.90;100.00
13800;BME280;6971;50.028;9.258;2024-02-26T02:45:37;97586.75;;;4.92;100.00
13800;BME280;6971;50.028;9.258;2024-02-26T02:50:37;97598.53;;;4.85;100.00
13800;BME280;6971;50.028;9.258;2024-02-26T02:55:38;97618.00;;;4.93;100.00
13800;BME280;6971;50.028;9.258;2024-02-26T03:00:38;97604.84;;;4.95;100.00
13800;BME280;6971;50.028;9.258;2024-02-26T03:05:38;97587.53;;;4.79;100.00
13800;BME280;6971;50.028;9.258;2024-02-26T03:10:39;97594.41;;;4.80;100.00
13800;BME280;6971;50.028;9.258;2024-02-26T03:15:39;97590.31;;;4.76;100.00
13800;BME280;6971;50.028;9.258;2024-02-26T03:20:39;97638.03;;;4.78;100.00
13800;BME280;6971;50.028;9.258;2024-02-26T03:25:42;97638.94;;;4.77;100.00
13800;BME280;6971;50.028;9.258;2024-02-26T03:30:42;97637.28;;;4.76;100.00
13800;BME280;6971;50.028;9.258;2024-02-26T03:35:42;97635.78;;;4.72;100.00
13800;BME280;6971;50.028;9.258;2024-02-26T03:40:43;97631.75;;;4.66;100.00
13800;BME280;6971;50.028;9.258;2024-02-26T03:45:43;97640.44;;;4.67;100.00
13800;BME280;6971;50.028;9.258;2024-02-26T03:50:43;97650.47;;;4.59;100.00
13800;BME280;6971;50.028;9.258;2024-02-26T03:55:44;97643.59;;;4.57;100.00
13800;BME280;6971;50.028;9.258;2024-02-26T04:00:44;97642.91;;;4.54;100.00
13800;BME280;6971;50.028;9.258;2024-02-26T04:05:45;97647.31;;;4.53;100.00
13800;BME280;6971;50.028;9.258;2024-02-26T04:10:45;97643.09;;;4.51;100.00
13800;BME280;6971;50.028;9.258;2024-02-26T04:15:45;97649.50;;;4.45;100.00
13800;BME280;6971;50.028;9.258;2024-02-26T04:20:47;97657.34;;;4.45;100.00
13800;BME280;6971;50.028;9.258;2024-02-26T04:25:47;97658.34;;;4.42;100.00
13800;BME280;6971;50.028;9.258;2024-02-26T04:30:48;97658.44;;;4.41;100.00
13800;BME280;6971;50.028;9.258;2024-02-26T04:35:48;97655.91;;;4.39;100.00
13800;BME280;6971;50.028;9.258;2024-02-26T04:40:48;97643.22;;;4.17;100.00
13800;BME280;6971;50.028;9.258;2024-02-26T04:45:49;97639.31;;;4.10;100.00
13800;BME280;6971;50.028;9.258;2024-02-26T04:50:49;97643.88;;;4.06;100.00
13800;BME280;6971;50.028;9.258;2024-02-26T04:55:50;97650.50;;;3.96;100.00
13800;BME280;6971;50.028;9.258;2024-02-26T05:00:50;97659.00;;;3.99;100.00
13800;BME280;6971;50.028;9.258;2024-02-26T05:05:50;97658.66;;;4.05;100.00
13800;BME280;6971;50.028;9.258;2024-02-26T05:10:51;97658.50;;;4.09;100.00
13800;BME280;6971;50.028;9.258;2024-02-26T05:15:51;97649.72;;;4.10;100.00
13800;BME280;6971;50.028;9.258;2024-02-26T05:20:52;97658.00;;;4.02;100.00
13800;BME280;6971;50.028;9.258;2024-02-26T05:25:52;97651.50;;;4.09;100.00
13800;BME280;6971;50.028;9.258;2024-02-26T05:30:53;97652.25;;;4.11;100.00
13800;BME280;6971;50.028;9.258;2024-02-26T05:35:53;97670.56;;;4.26;100.00
13800;BME280;6971;50.028;9.258;2024-02-26T05:40:53;97669.47;;;4.30;100.00
13800;BME280;6971;50.028;9.258;2024-02-26T05:45:54;97663.16;;;4.34;100.00
13800;BME280;6971;50.028;9.258;2024-02-26T05:50:54;97672.09;;;4.30;100.00
13800;BME280;6971;50.028;9.258;2024-02-26T05:55:54;97676.63;;;4.26;100.00
13800;BME280;6971;50.028;9.258;2024-02-26T06:00:55;97668.28;;;4.36;100.00
13800;BME280;6971;50.028;9.258;2024-02-26T06:05:55;97684.03;;;4.34;100.00
13800;BME280;6971;50.028;9.258;2024-02-26T06:10:56;97707.22;;;4.39;100.00
13800;BME280;6971;50.028;9.258;2024-02-26T06:15:56;97714.03;;;4.41;100.00
13800;BME280;6971;50.028;9.258;2024-02-26T06:20:57;97716.75;;;4.40;100.00
13800;BME280;6971;50.028;9.258;2024-02-26T06:25:57;97722.63;;;4.43;100.00
13800;BME280;6971;50.028;9.258;2024-02-26T06:30:57;97720.88;;;4.44;100.00
13800;BME280;6971;50.028;9.258;2024-02-26T06:35:58;97729.59;;;4.43;100.00
13800;BME280;6971;50.028;9.258;2024-02-26T06:40:59;97728.88;;;4.41;100.00
13800;BME280;6971;50.028;9.258;2024-02-26T06:45:59;97744.44;;;4.42;100.00
13800;BME280;6971;50.028;9.258;2024-02-26T06:50:59;97751.56;;;4.39;100.00
13800;BME280;6971;50.028;9.258;2024-02-26T06:56:00;97755.03;;;4.39;100.00
13800;BME280;6971;50.028;9.258;2024-02-26T07:01:00;97755.88;;;4.40;100.00
13800;BME280;6971;50.028;9.258;2024-02-26T07:06:01;97754.03;;;4.26;100.00
13800;BME280;6971;50.028;9.258;2024-02-26T07:11:02;97756.13;;;4.35;100.00
13800;BME280;6971;50.028;9.258;2024-02-26T07:16:03;97753.50;;;4.35;100.00
13800;BME280;6971;50.028;9.258;2024-02-26T07:21:04;97750.41;;;4.28;100.00
13800;BME280;6971;50.028;9.258;2024-02-26T07:26:04;97755.63;;;4.28;100.00
13800;BME280;6971;50.028;9.258;2024-02-26T07:31:04;97764.09;;;4.32;100.00
13800;BME280;6971;50.028;9.258;2024-02-26T07:36:05;97763.59;;;4.25;100.00
13800;BME280;6971;50.028;9.258;2024-02-26T07:41:05;97771.19;;;4.30;100.00
13800;BME280;6971;50.028;9.258;2024-02-26T07:46:05;97779.00;;;4.14;100.00
13800;BME280;6971;50.028;9.258;2024-02-26T07:51:06;97777.41;;;4.11;100.00
13800;BME280;6971;50.028;9.258;2024-02-26T07:56:07;97775.97;;;4.05;100.00
13800;BME280;6971;50.028;9.258;2024-02-26T08:01:07;97784.47;;;4.09;100.00
13800;BME280;6971;50.028;9.258;2024-02-26T08:06:08;97782.44;;;3.98;100.00
13800;BME280;6971;50.028;9.258;2024-02-26T08:11:09;97791.97;;;3.99;100.00
13800;BME280;6971;50.028;9.258;2024-02-26T08:16:09;97796.25;;;4.00;100.00
13800;BME280;6971;50.028;9.258;2024-02-26T08:21:11;97802.63;;;4.11;100.00
13800;BME280;6971;50.028;9.258;2024-02-26T08:26:11;97800.69;;;4.14;100.00
13800;BME280;6971;50.028;9.258;2024-02-26T08:31:12;97802.84;;;4.24;100.00
13800;BME280;6971;50.028;9.258;2024-02-26T08:36:12;97798.34;;;4.26;100.00
13800;BME280;6971;50.028;9.258;2024-02-26T08:41:13;97812.19;;;4.44;100.00
13800;BME280;6971;50.028;9.258;2024-02-26T08:46:13;97802.50;;;4.46;100.00
13800;BME280;6971;50.028;9.258;2024-02-26T08:51:13;97804.00;;;4.50;100.00
13800;BME280;6971;50.028;9.258;2024-02-26T08:56:14;97808.28;;;4.51;100.00
13800;BME280;6971;50.028;9.258;2024-02-26T09:01:17;97808.13;;;4.54;100.00
13800;BME280;6971;50.028;9.258;2024-02-26T09:06:17;97805.59;;;4.69;100.00
13800;BME280;6971;50.028;9.258;2024-02-26T09:11:18;97806.03;;;4.61;100.00
13800;BME280;6971;50.028;9.258;2024-02-26T09:16:18;97809.03;;;4.86;100.00
13800;BME280;6971;50.028;9.258;2024-02-26T09:21:18;97815.41;;;4.96;100.00
13800;BME280;6971;50.028;9.258;2024-02-26T09:26:23;97816.88;;;5.16;100.00
13800;BME280;6971;50.028;9.258;2024-02-26T09:31:23;97806.38;;;5.32;100.00
13800;BME280;6971;50.028;9.258;2024-02-26T09:36:23;97805.06;;;5.70;100.00
13800;BME280;6971;50.028;9.258;2024-02-26T09:41:28;97814.44;;;5.58;100.00
13800;BME280;6971;50.028;9.258;2024-02-26T09:46:33;97825.66;;;5.75;100.00
13800;BME280;6971;50.028;9.258;2024-02-26T09:51:33;97837.41;;;5.68;100.00
13800;BME280;6971;50.028;9.258;2024-02-26T09:56:34;97843.19;;;5.58;100.00
13800;BME280;6971;50.028;9.258;2024-02-26T10:01:35;97844.34;;;5.69;100.00
13800;BME280;6971;50.028;9.258;2024-02-26T10:06:36;97847.88;;;5.68;100.00
13800;BME280;6971;50.028;9.258;2024-02-26T10:11:37;97844.34;;;5.69;100.00
13800;BME280;6971;50.028;9.258;2024-02-26T10:16:38;97841.50;;;5.57;100.00
13800;BME280;6971;50.028;9.258;2024-02-26T10:21:39;97849.25;;;6.04;100.00
13800;BME280;6971;50.028;9.258;2024-02-26T10:26:46;97857.25;;;6.01;100.00
13800;BME280;6971;50.028;9.258;2024-02-26T10:31:46;97866.13;;;5.98;100.00
13800;BME280;6971;50.028;9.258;2024-02-26T10:36:46;97872.16;;;5.70;100.00
13800;BME280;6971;50.028;9.258;2024-02-26T10:41:47;97873.59;;;5.90;100.00
13800;BME280;6971;50.028;9.258;2024-02-26T10:46:47;97879.00;;;5.87;100.00
13800;BME280;6971;50.028;9.258;2024-02-26T10:51:56;97879.63;;;5.76;100.00
13800;BME280;6971;50.028;9.258;2024-02-26T10:57:00;97863.69;;;5.95;100.00
13800;BME280;6971;50.028;9.258;2024-02-26T11:02:01;97867.16;;;5.96;100.00
13800;BME280;6971;50.028;9.258;2024-02-26T11:07:02;97865.47;;;5.95;100.00
13800;BME280;6971;50.028;9.258;2024-02-26T11:12:05;97870.91;;;6.21;100.00
13800;BME280;6971;50.028;9.258;2024-02-26T11:17:10;97881.41;;;6.35;100.00
13800;BME280;6971;50.028;9.258;2024-02-26T11:22:11;97879.72;;;6.49;100.00
13800;BME280;6971;50.028;9.258;2024-02-26T11:27:12;97893.38;;;6.39;100.00
13800;BME280;6971;50.028;9.258;2024-02-26T11:32:12;97883.59;;;6.71;100.00
13800;BME280;6971;50.028;9.258;2024-02-26T11:37:14;97890.84;;;6.95;100.00
13800;BME280;6971;50.028;9.258;2024-02-26T11:42:15;97885.50;;;7.24;100.00
13800;BME280;6971;50.028;9.258;2024-02-26T11:47:21;97869.63;;;7.53;100.00
13800;BME280;6971;50.028;9.258;2024-02-26T11:52:21;97888.16;;;7.37;100.00
13800;BME280;6971;50.028;9.258;2024-02-26T11:57:30;97896.50;;;7.56;100.00
13800;BME280;6971;50.028;9.258;2024-02-26T12:07:47;97906.19;;;7.82;100.00
13800;BME280;6971;50.028;9.258;2024-02-26T12:12:49;97906.19;;;8.34;100.00
13800;BME280;6971;50.028;9.258;2024-02-26T12:17:53;97909.16;;;8.55;100.00
13800;BME280;6971;50.028;9.258;2024-02-26T12:22:54;97919.00;;;9.02;100.00
13800;BME280;6971;50.028;9.258;2024-02-26T12:27:55;97916.47;;;9.38;100.00
13800;BME280;6971;50.028;9.258;2024-02-26T12:32:56;97919.50;;;9.92;100.00
13800;BME280;6971;50.028;9.258;2024-02-26T12:37:58;97921.88;;;9.72;100.00
13800;BME280;6971;50.028;9.258;2024-02-26T12:42:58;97921.38;;;9.78;100.00
13800;BME280;6971;50.028;9.258;2024-02-26T12:47:59;97923.66;;;8.98;100.00
13800;BME280;6971;50.028;9.258;2024-02-26T12:52:59;97931.94;;;9.05;100.00
13800;BME280;6971;50.028;9.258;2024-02-26T12:57:59;97930.94;;;9.79;100.00
13800;BME280;6971;50.028;9.258;2024-02-26T13:03:00;97943.97;;;10.28;100.00
13800;BME280;6971;50.028;9.258;2024-02-26T13:08:01;97937.66;;;10.42;100.00
13800;BME280;6971;50.028;9.258;2024-02-26T13:13:02;97933.75;;;10.71;100.00
13800;BME280;6971;50.028;9.258;2024-02-26T13:18:13;97942.47;;;10.94;100.00
13800;BME280;6971;50.028;9.258;2024-02-26T13:23:13;97950.53;;;10.70;100.00
13800;BME280;6971;50.028;9.258;2024-02-26T13:28:18;97952.25;;;10.35;100.00
13800;BME280;6971;50.028;9.258;2024-02-26T13:33:20;97961.41;;;10.88;100.00
13800;BME280;6971;50.028;9.258;2024-02-26T13:38:21;97956.44;;;10.26;100.00
13800;BME280;6971;50.028;9.258;2024-02-26T13:43:22;97960.88;;;10.37;100.00
13800;BME280;6971;50.028;9.258;2024-02-26T13:48:22;97969.13;;;10.32;100.00
13800;BME280;6971;50.028;9.258;2024-02-26T13:53:23;97971.44;;;10.01;100.00
13800;BME280;6971;50.028;9.258;2024-02-26T13:58:24;97969.13;;;9.85;100.00
13800;BME280;6971;50.028;9.258;2024-02-26T14:03:25;97973.38;;;10.11;100.00
13800;BME280;6971;50.028;9.258;2024-02-26T14:08:26;97969.00;;;10.23;100.00
13800;BME280;6971;50.028;9.258;2024-02-26T14:13:26;97978.75;;;10.09;100.00
13800;BME280;6971;50.028;9.258;2024-02-26T14:18:27;97975.00;;;9.89;100.00
13800;BME280;6971;50.028;9.258;2024-02-26T14:23:27;97983.13;;;9.86;100.00
13800;BME280;6971;50.028;9.258;2024-02-26T14:28:28;97984.81;;;9.87;100.00
13800;BME280;6971;50.028;9.258;2024-02-26T14:33:29;97995.56;;;9.84;100.00
13800;BME280;6971;50.028;9.258;2024-02-26T14:38:29;98003.81;;;9.79;100.00
13800;BME280;6971;50.028;9.258;2024-02-26T14:43:30;98014.72;;;9.86;100.00
13800;BME280;6971;50.028;9.258;2024-02-26T14:48:32;98013.81;;;9.74;100.00
13800;BME280;6971;50.028;9.258;2024-02-26T14:53:32;98013.53;;;9.65;100.00
13800;BME280;6971;50.028;9.258;2024-02-26T14:58:32;98023.44;;;9.62;100.00
13800;BME280;6971;50.028;9.258;2024-02-26T15:03:33;98027.41;;;9.68;100.00
13800;BME280;6971;50.028;9.258;2024-02-26T15:08:33;98022.22;;;9.79;100.00
13800;BME280;6971;50.028;9.258;2024-02-26T15:13:35;98011.06;;;9.75;100.00
13800;BME280;6971;50.028;9.258;2024-02-26T15:18:37;98012.69;;;9.65;100.00
13800;BME280;6971;50.028;9.258;2024-02-26T15:23:37;98017.66;;;9.57;100.00
13800;BME280;6971;50.028;9.258;2024-02-26T15:28:37;98025.63;;;9.31;100.00
13800;BME280;6971;50.028;9.258;2024-02-26T15:33:38;98032.31;;;9.23;100.00
13800;BME280;6971;50.028;9.258;2024-02-26T15:38:38;98038.72;;;9.19;100.00
13800;BME280;6971;50.028;9.258;2024-02-26T15:43:40;98039.03;;;9.14;100.00
13800;BME280;6971;50.028;9.258;2024-02-26T15:48:40;98044.22;;;9.03;100.00
13800;BME280;6971;50.028;9.258;2024-02-26T15:53:41;98047.03;;;9.13;100.00
13800;BME280;6971;50.028;9.258;2024-02-26T15:58:41;98051.34;;;9.14;100.00
13800;BME280;6971;50.028;9.258;2024-02-26T16:03:42;98048.31;;;8.94;100.00
13800;BME280;6971;50.028;9.258;2024-02-26T16:08:42;98059.56;;;8.96;100.00
13800;BME280;6971;50.028;9.258;2024-02-26T16:13:42;98069.66;;;8.77;100.00
13800;BME280;6971;50.028;9.258;2024-02-26T16:18:43;98088.56;;;8.69;100.00
13800;BME280;6971;50.028;9.258;2024-02-26T16:23:43;98097.41;;;8.68;100.00
13800;BME280;6971;50.028;9.258;2024-02-26T16:28:44;98096.97;;;8.61;100.00
13800;BME280;6971;50.028;9.258;2024-02-26T16:33:44;98101.34;;;8.47;100.00
13800;BME280;6971;50.028;9.258;2024-02-26T16:38:44;98096.19;;;8.46;100.00
13800;BME280;6971;50.028;9.258;2024-02-26T16:43:45;98100.00;;;8.27;100.00
13800;BME280;6971;50.028;9.258;2024-02-26T16:48:45;98107.50;;;8.06;100.00
13800;BME280;6971;50.028;9.258;2024-02-26T16:53:48;98118.59;;;7.96;100.00
13800;BME280;6971;50.028;9.258;2024-02-26T16:58:48;98125.03;;;7.78;100.00
13800;BME280;6971;50.028;9.258;2024-02-26T17:03:49;98133.84;;;7.62;100.00
13800;BME280;6971;50.028;9.258;2024-02-26T17:08:49;98137.63;;;7.43;100.00
13800;BME280;6971;50.028;9.258;2024-02-26T17:13:52;98154.66;;;7.22;100.00
13800;BME280;6971;50.028;9.258;2024-02-26T17:18:52;98147.91;;;7.17;100.00
13800;BME280;6971;50.028;9.258;2024-02-26T17:23:53;98162.50;;;7.07;100.00
13800;BME280;6971;50.028;9.258;2024-02-26T17:28:54;98175.38;;;6.96;100.00
13800;BME280;6971;50.028;9.258;2024-02-26T17:33:57;98161.53;;;6.79;100.00
13800;BME280;6971;50.028;9.258;2024-02-26T17:38:57;98181.84;;;6.59;100.00
13800;BME280;6971;50.028;9.258;2024-02-26T17:43:58;98196.63;;;6.60;100.00
13800;BME280;6971;50.028;9.258;2024-02-26T17:48:58;98192.50;;;6.56;100.00
13800;BME280;6971;50.028;9.258;2024-02-26T17:53:58;98206.59;;;6.53;100.00
13800;BME280;6971;50.028;9.258;2024-02-26T17:58:59;98202.78;;;6.59;100.00
13800;BME280;6971;50.028;9.258;2024-02-26T18:03:59;98215.81;;;6.61;100.00
13800;BME280;6971;50.028;9.258;2024-02-26T18:08:59;98221.03;;;6.61;100.00
13800;BME280;6971;50.028;9.258;2024-02-26T18:14:00;98217.25;;;6.50;100.00
13800;BME280;6971;50.028;9.258;2024-02-26T18:19:00;98221.72;;;6.48;100.00
13800;BME280;6971;50.028;9.258;2024-02-26T18:24:01;98228.91;;;6.45;100.00
13800;BME280;6971;50.028;9.258;2024-02-26T18:29:01;98231.19;;;6.51;100.00
13800;BME280;6971;50.028;9.258;2024-02-26T18:34:02;98242.59;;;6.50;100.00
13800;BME280;6971;50.028;9.258;2024-02-26T18:39:02;98241.13;;;6.60;100.00
13800;BME280;6971;50.028;9.258;2024-02-26T18:44:04;98258.25;;;6.66;100.00
13800;BME280;6971;50.028;9.258;2024-02-26T18:49:04;98268.00;;;6.64;100.00
13800;BME280;6971;50.028;9.258;2024-02-26T18:54:05;98269.59;;;6.66;100.00
13800;BME280;6971;50.028;9.258;2024-02-26T18:59:05;98277.25;;;6.70;100.00
13800;BME280;6971;50.028;9.258;2024-02-26T19:04:08;98278.19;;;6.69;100.00
13800;BME280;6971;50.028;9.258;2024-02-26T19:09:09;98292.81;;;6.73;100.00
13800;BME280;6971;50.028;9.258;2024-02-26T19:14:09;98299.84;;;6.72;100.00
13800;BME280;6971;50.028;9.258;2024-02-26T19:19:10;98310.56;;;6.68;100.00
13800;BME280;6971;50.028;9.258;2024-02-26T19:24:11;98311.16;;;6.57;100.00
13800;BME280;6971;50.028;9.258;2024-02-26T19:29:12;98317.97;;;6.59;100.00
13800;BME280;6971;50.028;9.258;2024-02-26T19:34:12;98324.00;;;6.61;100.00
13800;BME280;6971;50.028;9.258;2024-02-26T19:39:13;98330.75;;;6.65;100.00
13800;BME280;6971;50.028;9.258;2024-02-26T19:44:13;98338.50;;;6.51;100.00
13800;BME280;6971;50.028;9.258;2024-02-26T19:49:13;98340.69;;;6.59;100.00
13800;BME280;6971;50.028;9.258;2024-02-26T19:54:14;98349.38;;;6.75;100.00
13800;BME280;6971;50.028;9.258;2024-02-26T19:59:14;98348.44;;;6.76;100.00
13800;BME280;6971;50.028;9.258;2024-02-26T20:04:15;98363.94;;;6.81;100.00
13800;BME280;6971;50.028;9.258;2024-02-26T20:09:16;98363.50;;;6.89;100.00
13800;BME280;6971;50.028;9.258;2024-02-26T20:14:17;98372.94;;;6.91;100.00
13800;BME280;6971;50.028;9.258;2024-02-26T20:19:18;98386.13;;;7.06;100.00
13800;BME280;6971;50.028;9.258;2024-02-26T20:24:18;98391.44;;;7.21;100.00
13800;BME280;6971;50.028;9.258;2024-02-26T20:29:18;98399.91;;;7.10;100.00
13800;BME280;6971;50.028;9.258;2024-02-26T20:34:19;98409.78;;;7.21;100.00
13800;BME280;6971;50.028;9.258;2024-02-26T20:39:19;98411.13;;;7.28;100.00
13800;BME280;6971;50.028;9.258;2024-02-26T20:44:19;98434.59;;;7.29;100.00
13800;BME280;6971;50.028;9.258;2024-02-26T20:49:20;98437.94;;;7.33;100.00
13800;BME280;6971;50.028;9.258;2024-02-26T20:54:21;98457.38;;;7.29;100.00
13800;BME280;6971;50.028;9.258;2024-02-26T20:59:21;98466.91;;;7.30;100.00
13800;BME280;6971;50.028;9.258;2024-02-26T21:04:21;98475.50;;;7.64;100.00
13800;BME280;6971;50.028;9.258;2024-02-26T21:09:22;98491.44;;;7.76;100.00
13800;BME280;6971;50.028;9.258;2024-02-26T21:14:22;98491.72;;;7.71;100.00
13800;BME280;6971;50.028;9.258;2024-02-26T21:19:23;98497.16;;;7.52;100.00
13800;BME280;6971;50.028;9.258;2024-02-26T21:24:23;98500.63;;;7.36;100.00
13800;BME280;6971;50.028;9.258;2024-02-26T21:29:23;98512.97;;;7.50;100.00
13800;BME280;6971;50.028;9.258;2024-02-26T21:34:24;98516.97;;;7.41;100.00
13800;BME280;6971;50.028;9.258;2024-02-26T21:39:24;98526.84;;;7.36;100.00
13800;BME280;6971;50.028;9.258;2024-02-26T21:44:25;98543.09;;;7.27;100.00
13800;BME280;6971;50.028;9.258;2024-02-26T21:49:25;98555.09;;;7.15;100.00
13800;BME280;6971;50.028;9.258;2024-02-26T21:54:26;98554.84;;;7.03;100.00
13800;BME280;6971;50.028;9.258;2024-02-26T21:59:27;98561.84;;;7.03;100.00
13800;BME280;6971;50.028;9.258;2024-02-26T22:04:27;98561.47;;;6.93;100.00
13800;BME280;6971;50.028;9.258;2024-02-26T22:09:28;98566.97;;;6.88;100.00
13800;BME280;6971;50.028;9.258;2024-02-26T22:14:28;98564.72;;;6.81;100.00
13800;BME280;6971;50.028;9.258;2024-02-26T22:19:28;98561.75;;;6.71;100.00
13800;BME280;6971;50.028;9.258;2024-02-26T22:24:29;98567.06;;;6.69;100.00
13800;BME280;6971;50.028;9.258;2024-02-26T22:29:29;98576.53;;;6.72;100.00
13800;BME280;6971;50.028;9.258;2024-02-26T22:34:29;98584.09;;;6.60;100.00
13800;BME280;6971;50.028;9.258;2024-02-26T22:39:30;98591.88;;;6.62;100.00
13800;BME280;6971;50.028;9.258;2024-02-26T22:44:30;98592.13;;;6.57;100.00
13800;BME280;6971;50.028;9.258;2024-02-26T22:49:31;98608.66;;;6.75;100.00
13800;BME280;6971;50.028;9.258;2024-02-26T22:54:32;98617.22;;;6.79;100.00
13800;BME280;6971;50.028;9.258;2024-02-26T22:59:32;98620.13;;;6.73;100.00
13800;BME280;6971;50.028;9.258;2024-02-26T23:04:33;98624.00;;;6.65;100.00
13800;BME280;6971;50.028;9.258;2024-02-26T23:09:33;98631.75;;;6.67;100.00
13800;BME280;6971;50.028;9.258;2024-02-26T23:14:35;98622.00;;;6.53;100.00
13800;BME280;6971;50.028;9.258;2024-02-26T23:19:35;98631.22;;;6.60;100.00
13800;BME280;6971;50.028;9.258;2024-02-26T23:24:36;98640.16;;;6.56;100.00
13800;BME280;6971;50.028;9.258;2024-02-26T23:29:36;98647.56;;;6.48;100.00
13800;BME280;6971;50.028;9.258;2024-02-26T23:34:37;98644.63;;;6.36;100.00
13800;BME280;6971;50.028;9.258;2024-02-26T23:39:37;98641.22;;;6.34;100.00
13800;BME280;6971;50.028;9.258;2024-02-26T23:44:39;98646.44;;;6.34;100.00
13800;BME280;6971;50.028;9.258;2024-02-26T23:49:39;98652.63;;;6.33;100.00
13800;BME280;6971;50.028;9.258;2024-02-26T23:54:39;98648.97;;;6.18;100.00
13800;BME280;6971;50.028;9.258;2024-02-26T23:59:40;98651.81;;;6.13;100.00
